sensor_id;sensor_type;location;lat;lon;timestamp;pressure;altitude;pressure_sealevel;temperature;humidity
3122;BME280;1571;52.524;14.104;2023-05-14T00:02:19;101499.66;;;11.24;92.20
3122;BME280;1571;52.524;14.104;2023-05-14T00:04:47;101500.31;;;11.28;91.94
3122;BME280;1571;52.524;14.104;2023-05-14T00:07:16;101499.22;;;11.32;91.85
3122;BME280;1571;52.524;14.104;2023-05-14T00:09:45;101493.78;;;11.17;91.65
3122;BME280;1571;52.524;14.104;2023-05-14T00:12:13;101498.63;;;11.27;92.20
3122;BME280;1571;52.524;14.104;2023-05-14T00:14:41;101501.31;;;11.09;92.85
3122;BME280;1571;52.524;14.104;2023-05-14T00:17:09;101493.09;;;10.96;93.39
3122;BME280;1571;52.524;14.104;2023-05-14T00:19:37;101495.13;;;11.09;94.27
3122;BME280;1571;52.524;14.104;2023-05-14T00:22:07;101482.47;;;11.14;93.86
3122;BME280;1571;52.524;14.104;2023-05-14T00:24:37;101489.66;;;11.12;93.51
3122;BME280;1571;52.524;14.104;2023-05-14T00:27:05;101497.19;;;11.03;93.22
3122;BME280;1571;52.524;14.104;2023-05-14T00:29:33;101490.00;;;11.06;93.57
3122;BME280;1571;52.524;14.104;2023-05-14T00:32:02;101493.81;;;11.00;93.42
3122;BME280;1571;52.524;14.104;2023-05-14T00:34:30;101490.31;;;10.99;93.12
3122;BME280;1571;52.524;14.104;2023-05-14T00:36:59;101485.00;;;10.82;93.56
3122;BME280;1571;52.524;14.104;2023-05-14T00:39:27;101488.91;;;10.75;94.07
3122;BME280;1571;52.524;14.104;2023-05-14T00:41:56;101492.97;;;10.82;94.48
3122;BME280;1571;52.524;14.104;2023-05-14T00:44:25;101488.44;;;10.67;94.74
3122;BME280;1571;52.524;14.104;2023-05-14T00:46:53;101493.22;;;10.77;94.90
3122;BME280;1571;52.524;14.104;2023-05-14T00:49:22;101487.50;;;10.50;95.34
3122;BME280;1571;52.524;14.104;2023-05-14T00:51:50;101483.47;;;10.60;96.07
3122;BME280;1571;52.524;14.104;2023-05-14T00:54:19;101492.66;;;10.53;96.21
3122;BME280;1571;52.524;14.104;2023-05-14T00:56:48;101490.47;;;10.61;96.00
3122;BME280;1571;52.524;14.104;2023-05-14T00:59:17;101487.66;;;10.65;95.98
3122;BME280;1571;52.524;14.104;2023-05-14T01:01:46;101494.69;;;10.66;95.55
3122;BME280;1571;52.524;14.104;2023-05-14T01:04:14;101485.47;;;10.55;95.73
3122;BME280;1571;52.524;14.104;2023-05-14T01:06:49;101484.06;;;10.48;95.99
3122;BME280;1571;52.524;14.104;2023-05-14T01:09:24;101483.13;;;10.32;96.75
3122;BME280;1571;52.524;14.104;2023-05-14T01:11:56;101483.44;;;10.07;98.62
3122;BME280;1571;52.524;14.104;2023-05-14T01:14:34;101485.09;;;10.46;99.17
3122;BME280;1571;52.524;14.104;2023-05-14T01:17:03;101483.56;;;10.40;99.03
3122;BME280;1571;52.524;14.104;2023-05-14T01:19:36;101480.06;;;10.39;98.90
3122;BME280;1571;52.524;14.104;2023-05-14T01:22:08;101484.88;;;10.68;98.37
3122;BME280;1571;52.524;14.104;2023-05-14T01:24:36;101478.53;;;10.70;97.73
3122;BME280;1571;52.524;14.104;2023-05-14T01:27:07;101481.00;;;10.56;97.83
3122;BME280;1571;52.524;14.104;2023-05-14T01:29:39;101476.59;;;10.56;98.39
3122;BME280;1571;52.524;14.104;2023-05-14T01:32:11;101481.31;;;10.67;98.55
3122;BME280;1571;52.524;14.104;2023-05-14T01:34:40;101476.88;;;10.85;97.87
3122;BME280;1571;52.524;14.104;2023-05-14T01:37:11;101483.97;;;10.67;97.80
3122;BME280;1571;52.524;14.104;2023-05-14T01:39:41;101474.69;;;10.93;97.06
3122;BME280;1571;52.524;14.104;2023-05-14T01:42:09;101472.69;;;10.81;96.43
3122;BME280;1571;52.524;14.104;2023-05-14T01:44:38;101471.25;;;10.91;96.33
3122;BME280;1571;52.524;14.104;2023-05-14T01:47:06;101468.50;;;10.93;96.14
3122;BME280;1571;52.524;14.104;2023-05-14T01:49:34;101470.69;;;10.84;96.17
3122;BME280;1571;52.524;14.104;2023-05-14T01:52:04;101471.88;;;10.79;96.96
3122;BME280;1571;52.524;14.104;2023-05-14T01:54:33;101472.81;;;10.95;96.67
3122;BME280;1571;52.524;14.104;2023-05-14T01:57:02;101466.00;;;10.90;96.33
3122;BME280;1571;52.524;14.104;2023-05-14T01:59:30;101457.81;;;10.94;96.21
3122;BME280;1571;52.524;14.104;2023-05-14T02:01:58;101464.38;;;10.87;96.29
3122;BME280;1571;52.524;14.104;2023-05-14T02:04:27;101469.31;;;10.60;96.45
3122;BME280;1571;52.524;14.104;2023-05-14T02:06:55;101465.00;;;10.75;97.14
3122;BME280;1571;52.524;14.104;2023-05-14T02:09:24;101463.63;;;10.68;97.17
3122;BME280;1571;52.524;14.104;2023-05-14T02:11:53;101461.41;;;10.76;96.99
3122;BME280;1571;52.524;14.104;2023-05-14T02:14:22;101456.44;;;10.52;96.72
3122;BME280;1571;52.524;14.104;2023-05-14T02:16:50;101464.56;;;10.49;97.20
3122;BME280;1571;52.524;14.104;2023-05-14T02:19:18;101453.53;;;10.57;96.56
3122;BME280;1571;52.524;14.104;2023-05-14T02:21:48;101452.34;;;10.62;96.29
3122;BME280;1571;52.524;14.104;2023-05-14T02:24:16;101451.88;;;10.89;95.51
3122;BME280;1571;52.524;14.104;2023-05-14T02:26:44;101449.69;;;10.80;95.47
3122;BME280;1571;52.524;14.104;2023-05-14T02:29:13;101452.81;;;10.88;95.12
3122;BME280;1571;52.524;14.104;2023-05-14T02:31:42;101452.81;;;10.88;94.85
3122;BME280;1571;52.524;14.104;2023-05-14T02:34:10;101453.13;;;10.65;95.06
3122;BME280;1571;52.524;14.104;2023-05-14T02:36:38;101459.63;;;10.59;95.68
3122;BME280;1571;52.524;14.104;2023-05-14T02:39:07;101448.38;;;10.71;95.38
3122;BME280;1571;52.524;14.104;2023-05-14T02:41:35;101448.47;;;10.70;95.33
3122;BME280;1571;52.524;14.104;2023-05-14T02:44:03;101450.34;;;10.50;95.76
3122;BME280;1571;52.524;14.104;2023-05-14T02:46:33;101445.25;;;10.46;96.26
3122;BME280;1571;52.524;14.104;2023-05-14T02:49:02;101447.53;;;10.36;97.01
3122;BME280;1571;52.524;14.104;2023-05-14T02:51:30;101450.94;;;10.38;96.89
3122;BME280;1571;52.524;14.104;2023-05-14T02:53:58;101453.28;;;10.44;97.02
3122;BME280;1571;52.524;14.104;2023-05-14T02:56:26;101451.19;;;10.51;96.67
3122;BME280;1571;52.524;14.104;2023-05-14T02:58:55;101447.84;;;10.47;96.26
3122;BME280;1571;52.524;14.104;2023-05-14T03:01:23;101451.50;;;10.45;96.08
3122;BME280;1571;52.524;14.104;2023-05-14T03:03:53;101457.81;;;10.42;96.51
3122;BME280;1571;52.524;14.104;2023-05-14T03:06:21;101454.38;;;10.40;96.56
3122;BME280;1571;52.524;14.104;2023-05-14T03:08:50;101451.88;;;10.37;96.89
3122;BME280;1571;52.524;14.104;2023-05-14T03:11:18;101457.47;;;10.13;96.87
3122;BME280;1571;52.524;14.104;2023-05-14T03:13:46;101460.44;;;10.25;97.05
3122;BME280;1571;52.524;14.104;2023-05-14T03:16:14;101457.00;;;10.23;97.15
3122;BME280;1571;52.524;14.104;2023-05-14T03:18:43;101461.19;;;10.09;98.09
3122;BME280;1571;52.524;14.104;2023-05-14T03:21:13;101458.22;;;9.98;98.76
3122;BME280;1571;52.524;14.104;2023-05-14T03:23:42;101458.66;;;10.06;98.88
3122;BME280;1571;52.524;14.104;2023-05-14T03:26:10;101456.22;;;9.84;98.69
3122;BME280;1571;52.524;14.104;2023-05-14T03:28:38;101455.34;;;9.84;98.80
3122;BME280;1571;52.524;14.104;2023-05-14T03:31:07;101457.81;;;9.69;99.18
3122;BME280;1571;52.524;14.104;2023-05-14T03:33:36;101454.59;;;9.99;99.10
3122;BME280;1571;52.524;14.104;2023-05-14T03:36:04;101457.59;;;10.10;98.95
3122;BME280;1571;52.524;14.104;2023-05-14T03:38:34;101456.91;;;9.88;99.17
3122;BME280;1571;52.524;14.104;2023-05-14T03:41:02;101455.22;;;9.87;99.71
3122;BME280;1571;52.524;14.104;2023-05-14T03:43:31;101454.03;;;10.11;99.42
3122;BME280;1571;52.524;14.104;2023-05-14T03:45:59;101448.38;;;10.17;99.04
3122;BME280;1571;52.524;14.104;2023-05-14T03:48:27;101448.84;;;10.08;98.95
3122;BME280;1571;52.524;14.104;2023-05-14T03:50:55;101452.00;;;10.16;98.60
3122;BME280;1571;52.524;14.104;2023-05-14T03:53:24;101441.59;;;10.48;98.45
3122;BME280;1571;52.524;14.104;2023-05-14T03:55:53;101447.34;;;10.74;97.60
3122;BME280;1571;52.524;14.104;2023-05-14T03:58:21;101450.63;;;10.44;96.70
3122;BME280;1571;52.524;14.104;2023-05-14T04:00:50;101444.25;;;10.66;97.30
3122;BME280;1571;52.524;14.104;2023-05-14T04:03:18;101439.69;;;10.85;96.83
3122;BME280;1571;52.524;14.104;2023-05-14T04:05:47;101434.78;;;11.44;95.75
3122;BME280;1571;52.524;14.104;2023-05-14T04:08:15;101436.75;;;11.72;93.42
3122;BME280;1571;52.524;14.104;2023-05-14T04:10:43;101437.44;;;11.60;90.68
3122;BME280;1571;52.524;14.104;2023-05-14T04:13:13;101441.44;;;11.35;89.95
3122;BME280;1571;52.524;14.104;2023-05-14T04:15:42;101429.72;;;11.39;89.91
3122;BME280;1571;52.524;14.104;2023-05-14T04:18:10;101434.75;;;11.28;89.74
3122;BME280;1571;52.524;14.104;2023-05-14T04:20:39;101429.72;;;11.87;89.65
3122;BME280;1571;52.524;14.104;2023-05-14T04:23:07;101430.31;;;11.92;89.09
3122;BME280;1571;52.524;14.104;2023-05-14T04:25:36;101428.19;;;11.99;88.95
3122;BME280;1571;52.524;14.104;2023-05-14T04:28:04;101430.91;;;11.97;88.61
3122;BME280;1571;52.524;14.104;2023-05-14T04:30:34;101423.69;;;11.83;89.27
3122;BME280;1571;52.524;14.104;2023-05-14T04:33:02;101430.22;;;12.10;87.04
3122;BME280;1571;52.524;14.104;2023-05-14T04:35:30;101437.00;;;11.83;86.97
3122;BME280;1571;52.524;14.104;2023-05-14T04:37:58;101430.56;;;11.40;87.21
3122;BME280;1571;52.524;14.104;2023-05-14T04:40:27;101425.50;;;11.51;87.28
3122;BME280;1571;52.524;14.104;2023-05-14T04:42:57;101424.91;;;11.62;88.25
3122;BME280;1571;52.524;14.104;2023-05-14T04:45:25;101430.91;;;11.50;86.90
3122;BME280;1571;52.524;14.104;2023-05-14T04:47:54;101425.00;;;11.76;85.33
3122;BME280;1571;52.524;14.104;2023-05-14T04:50:23;101425.00;;;11.76;83.55
3122;BME280;1571;52.524;14.104;2023-05-14T04:52:52;101426.03;;;11.90;84.54
3122;BME280;1571;52.524;14.104;2023-05-14T04:55:21;101428.81;;;11.86;83.48
3122;BME280;1571;52.524;14.104;2023-05-14T04:57:50;101432.22;;;11.90;82.29
3122;BME280;1571;52.524;14.104;2023-05-14T05:00:18;101426.81;;;11.92;81.92
3122;BME280;1571;52.524;14.104;2023-05-14T05:02:48;101432.78;;;11.79;82.17
3122;BME280;1571;52.524;14.104;2023-05-14T05:05:18;101428.44;;;11.62;82.69
3122;BME280;1571;52.524;14.104;2023-05-14T05:07:46;101432.63;;;11.82;82.86
3122;BME280;1571;52.524;14.104;2023-05-14T05:10:14;101422.84;;;11.99;81.63
3122;BME280;1571;52.524;14.104;2023-05-14T05:12:43;101430.91;;;11.97;81.70
3122;BME280;1571;52.524;14.104;2023-05-14T05:15:11;101439.16;;;11.93;81.92
3122;BME280;1571;52.524;14.104;2023-05-14T05:17:39;101429.69;;;12.19;80.54
3122;BME280;1571;52.524;14.104;2023-05-14T05:20:08;101427.63;;;12.08;80.04
3122;BME280;1571;52.524;14.104;2023-05-14T05:22:38;101432.34;;;12.19;80.63
3122;BME280;1571;52.524;14.104;2023-05-14T05:25:07;101437.22;;;12.26;79.60
3122;BME280;1571;52.524;14.104;2023-05-14T05:27:35;101435.84;;;12.19;78.27
3122;BME280;1571;52.524;14.104;2023-05-14T05:30:04;101435.16;;;12.16;77.60
3122;BME280;1571;52.524;14.104;2023-05-14T05:32:33;101435.09;;;12.17;76.64
3122;BME280;1571;52.524;14.104;2023-05-14T05:35:02;101429.28;;;12.41;76.30
3122;BME280;1571;52.524;14.104;2023-05-14T05:37:30;101428.53;;;12.53;75.91
3122;BME280;1571;52.524;14.104;2023-05-14T05:40:00;101435.34;;;12.73;75.83
3122;BME280;1571;52.524;14.104;2023-05-14T05:42:28;101431.63;;;12.61;75.36
3122;BME280;1571;52.524;14.104;2023-05-14T05:44:56;101424.00;;;12.55;73.98
3122;BME280;1571;52.524;14.104;2023-05-14T05:47:25;101414.31;;;12.54;73.54
3122;BME280;1571;52.524;14.104;2023-05-14T05:49:53;101428.84;;;12.63;73.70
3122;BME280;1571;52.524;14.104;2023-05-14T05:52:21;101428.41;;;12.85;73.76
3122;BME280;1571;52.524;14.104;2023-05-14T05:54:50;101422.91;;;13.02;73.32
3122;BME280;1571;52.524;14.104;2023-05-14T05:57:19;101420.03;;;12.91;72.68
3122;BME280;1571;52.524;14.104;2023-05-14T05:59:52;101428.97;;;12.76;73.62
3122;BME280;1571;52.524;14.104;2023-05-14T06:02:20;101424.41;;;12.92;72.84
3122;BME280;1571;52.524;14.104;2023-05-14T06:04:48;101431.09;;;12.99;73.08
3122;BME280;1571;52.524;14.104;2023-05-14T06:07:17;101428.81;;;13.07;72.34
3122;BME280;1571;52.524;14.104;2023-05-14T06:09:45;101417.56;;;13.17;71.13
3122;BME280;1571;52.524;14.104;2023-05-14T06:12:13;101423.09;;;13.28;70.73
3122;BME280;1571;52.524;14.104;2023-05-14T06:14:43;101422.34;;;13.11;71.62
3122;BME280;1571;52.524;14.104;2023-05-14T06:17:11;101429.19;;;13.16;72.06
3122;BME280;1571;52.524;14.104;2023-05-14T06:19:39;101426.38;;;13.33;71.85
3122;BME280;1571;52.524;14.104;2023-05-14T06:22:08;101433.56;;;13.45;71.94
3122;BME280;1571;52.524;14.104;2023-05-14T06:24:36;101440.69;;;13.59;71.81
3122;BME280;1571;52.524;14.104;2023-05-14T06:27:04;101444.16;;;13.32;73.15
3122;BME280;1571;52.524;14.104;2023-05-14T06:29:33;101444.28;;;13.31;72.70
3122;BME280;1571;52.524;14.104;2023-05-14T06:32:03;101433.06;;;13.67;72.63
3122;BME280;1571;52.524;14.104;2023-05-14T06:34:31;101441.78;;;13.84;72.07
3122;BME280;1571;52.524;14.104;2023-05-14T06:37:00;101445.97;;;13.88;71.75
3122;BME280;1571;52.524;14.104;2023-05-14T06:39:30;101443.75;;;13.67;71.84
3122;BME280;1571;52.524;14.104;2023-05-14T06:41:58;101447.41;;;13.79;72.16
3122;BME280;1571;52.524;14.104;2023-05-14T06:44:26;101444.75;;;13.79;71.65
3122;BME280;1571;52.524;14.104;2023-05-14T06:46:54;101442.03;;;13.52;71.79
3122;BME280;1571;52.524;14.104;2023-05-14T06:49:24;101439.34;;;13.66;73.12
3122;BME280;1571;52.524;14.104;2023-05-14T06:51:52;101440.38;;;13.78;71.78
3122;BME280;1571;52.524;14.104;2023-05-14T06:54:20;101440.88;;;13.98;71.17
3122;BME280;1571;52.524;14.104;2023-05-14T06:56:49;101440.47;;;14.04;68.88
3122;BME280;1571;52.524;14.104;2023-05-14T06:59:17;101437.50;;;14.08;67.84
3122;BME280;1571;52.524;14.104;2023-05-14T07:01:45;101430.53;;;14.33;68.37
3122;BME280;1571;52.524;14.104;2023-05-14T07:04:13;101434.75;;;14.23;68.18
3122;BME280;1571;52.524;14.104;2023-05-14T07:06:43;101422.56;;;14.46;67.23
3122;BME280;1571;52.524;14.104;2023-05-14T07:09:11;101418.97;;;14.60;67.87
3122;BME280;1571;52.524;14.104;2023-05-14T07:11:40;101418.59;;;14.51;67.27
3122;BME280;1571;52.524;14.104;2023-05-14T07:14:08;101411.13;;;14.56;67.26
3122;BME280;1571;52.524;14.104;2023-05-14T07:16:36;101423.63;;;14.16;68.95
3122;BME280;1571;52.524;14.104;2023-05-14T07:19:04;101422.88;;;14.54;67.33
3122;BME280;1571;52.524;14.104;2023-05-14T07:21:33;101430.28;;;14.63;68.15
3122;BME280;1571;52.524;14.104;2023-05-14T07:24:04;101423.31;;;14.48;67.21
3122;BME280;1571;52.524;14.104;2023-05-14T07:26:32;101412.44;;;14.76;67.02
3122;BME280;1571;52.524;14.104;2023-05-14T07:29:01;101421.84;;;14.69;67.91
3122;BME280;1571;52.524;14.104;2023-05-14T07:31:29;101418.59;;;14.51;67.17
3122;BME280;1571;52.524;14.104;2023-05-14T07:33:57;101419.72;;;14.74;67.59
3122;BME280;1571;52.524;14.104;2023-05-14T07:36:25;101410.63;;;14.90;67.20
3122;BME280;1571;52.524;14.104;2023-05-14T07:38:54;101402.94;;;14.98;66.82
3122;BME280;1571;52.524;14.104;2023-05-14T07:41:23;101424.53;;;14.69;67.60
3122;BME280;1571;52.524;14.104;2023-05-14T07:43:52;101416.72;;;14.92;67.08
3122;BME280;1571;52.524;14.104;2023-05-14T07:46:20;101407.72;;;15.06;68.11
3122;BME280;1571;52.524;14.104;2023-05-14T07:48:49;101407.41;;;15.60;66.28
3122;BME280;1571;52.524;14.104;2023-05-14T07:51:17;101401.72;;;15.65;66.66
3122;BME280;1571;52.524;14.104;2023-05-14T07:53:46;101398.47;;;15.35;65.30
3122;BME280;1571;52.524;14.104;2023-05-14T07:56:14;101398.81;;;15.68;66.01
3122;BME280;1571;52.524;14.104;2023-05-14T07:58:44;101398.69;;;15.69;66.16
3122;BME280;1571;52.524;14.104;2023-05-14T08:01:12;101386.22;;;16.29;64.87
3122;BME280;1571;52.524;14.104;2023-05-14T08:03:40;101385.84;;;15.98;65.32
3122;BME280;1571;52.524;14.104;2023-05-14T08:06:08;101389.41;;;16.45;65.80
3122;BME280;1571;52.524;14.104;2023-05-14T08:08:37;101383.19;;;16.80;64.83
3122;BME280;1571;52.524;14.104;2023-05-14T08:11:05;101370.22;;;16.74;63.70
3122;BME280;1571;52.524;14.104;2023-05-14T08:13:33;101376.25;;;17.00;63.10
3122;BME280;1571;52.524;14.104;2023-05-14T08:16:03;101376.25;;;17.12;63.17
3122;BME280;1571;52.524;14.104;2023-05-14T08:18:32;101361.38;;;17.62;61.74
3122;BME280;1571;52.524;14.104;2023-05-14T08:21:00;101358.56;;;17.75;61.14
3122;BME280;1571;52.524;14.104;2023-05-14T08:23:29;101361.13;;;17.77;60.85
3122;BME280;1571;52.524;14.104;2023-05-14T08:25:58;101352.69;;;18.14;58.51
3122;BME280;1571;52.524;14.104;2023-05-14T08:28:26;101349.47;;;18.20;58.63
3122;BME280;1571;52.524;14.104;2023-05-14T08:30:54;101346.94;;;17.86;59.38
3122;BME280;1571;52.524;14.104;2023-05-14T08:33:24;101353.19;;;17.75;59.65
3122;BME280;1571;52.524;14.104;2023-05-14T08:35:52;101356.53;;;17.45;60.14
3122;BME280;1571;52.524;14.104;2023-05-14T08:38:20;101348.22;;;17.59;59.65
3122;BME280;1571;52.524;14.104;2023-05-14T08:40:53;101339.06;;;18.26;58.91
3122;BME280;1571;52.524;14.104;2023-05-14T08:43:25;101323.50;;;18.30;54.33
3122;BME280;1571;52.524;14.104;2023-05-14T08:45:59;101314.94;;;18.36;54.16
3122;BME280;1571;52.524;14.104;2023-05-14T08:48:31;101313.13;;;18.98;54.45
3122;BME280;1571;52.524;14.104;2023-05-14T08:51:00;101304.66;;;19.03;53.55
3122;BME280;1571;52.524;14.104;2023-05-14T08:53:29;101307.03;;;18.75;51.70
3122;BME280;1571;52.524;14.104;2023-05-14T08:56:00;101308.50;;;19.29;51.88
3122;BME280;1571;52.524;14.104;2023-05-14T08:58:28;101293.38;;;19.28;48.91
3122;BME280;1571;52.524;14.104;2023-05-14T09:00:57;101296.94;;;19.58;49.40
3122;BME280;1571;52.524;14.104;2023-05-14T09:03:25;101296.09;;;19.48;48.85
3122;BME280;1571;52.524;14.104;2023-05-14T09:05:55;101296.50;;;19.53;48.50
3122;BME280;1571;52.524;14.104;2023-05-14T09:08:26;101290.56;;;19.40;48.05
3122;BME280;1571;52.524;14.104;2023-05-14T09:10:54;101289.38;;;19.13;48.03
3122;BME280;1571;52.524;14.104;2023-05-14T09:13:22;101293.28;;;19.59;50.12
3122;BME280;1571;52.524;14.104;2023-05-14T09:15:54;101288.47;;;19.82;48.91
3122;BME280;1571;52.524;14.104;2023-05-14T09:18:23;101292.69;;;19.65;48.97
3122;BME280;1571;52.524;14.104;2023-05-14T09:20:52;101288.84;;;19.68;49.32
3122;BME280;1571;52.524;14.104;2023-05-14T09:23:24;101285.09;;;19.70;49.04
3122;BME280;1571;52.524;14.104;2023-05-14T09:25:52;101279.66;;;19.90;48.11
3122;BME280;1571;52.524;14.104;2023-05-14T09:28:21;101279.66;;;19.90;48.37
3122;BME280;1571;52.524;14.104;2023-05-14T09:30:50;101275.09;;;19.51;47.82
3122;BME280;1571;52.524;14.104;2023-05-14T09:33:25;101266.03;;;20.01;46.95
3122;BME280;1571;52.524;14.104;2023-05-14T09:35:57;101264.28;;;20.20;46.83
3122;BME280;1571;52.524;14.104;2023-05-14T09:38:30;101257.25;;;20.46;46.98
3122;BME280;1571;52.524;14.104;2023-05-14T09:40:59;101250.56;;;20.60;46.42
3122;BME280;1571;52.524;14.104;2023-05-14T09:43:27;101246.03;;;20.51;44.92
3122;BME280;1571;52.524;14.104;2023-05-14T09:45:55;101246.03;;;20.61;44.65
3122;BME280;1571;52.524;14.104;2023-05-14T09:48:24;101236.78;;;20.53;44.05
3122;BME280;1571;52.524;14.104;2023-05-14T09:50:52;101228.75;;;20.81;44.38
3122;BME280;1571;52.524;14.104;2023-05-14T09:53:20;101236.22;;;20.87;44.90
3122;BME280;1571;52.524;14.104;2023-05-14T09:55:50;101226.94;;;20.72;44.93
3122;BME280;1571;52.524;14.104;2023-05-14T09:58:18;101230.28;;;20.84;44.71
3122;BME280;1571;52.524;14.104;2023-05-14T10:00:47;101220.09;;;20.77;43.56
3122;BME280;1571;52.524;14.104;2023-05-14T10:03:17;101215.06;;;20.55;44.25
3122;BME280;1571;52.524;14.104;2023-05-14T10:05:48;101215.66;;;21.04;45.11
3122;BME280;1571;52.524;14.104;2023-05-14T10:08:21;101209.22;;;20.69;44.47
3122;BME280;1571;52.524;14.104;2023-05-14T10:10:53;101207.09;;;20.53;44.39
3122;BME280;1571;52.524;14.104;2023-05-14T10:13:26;101216.16;;;20.72;44.28
3122;BME280;1571;52.524;14.104;2023-05-14T10:16:04;101205.13;;;20.65;44.37
3122;BME280;1571;52.524;14.104;2023-05-14T10:18:42;101203.72;;;20.61;44.77
3122;BME280;1571;52.524;14.104;2023-05-14T10:21:15;101195.06;;;20.85;44.52
3122;BME280;1571;52.524;14.104;2023-05-14T10:23:47;101184.94;;;20.87;45.27
3122;BME280;1571;52.524;14.104;2023-05-14T10:26:17;101192.09;;;20.61;44.54
3122;BME280;1571;52.524;14.104;2023-05-14T10:28:49;101174.84;;;20.89;44.11
3122;BME280;1571;52.524;14.104;2023-05-14T10:31:17;101171.44;;;20.69;43.40
3122;BME280;1571;52.524;14.104;2023-05-14T10:33:46;101174.56;;;20.37;44.57
3122;BME280;1571;52.524;14.104;2023-05-14T10:36:16;101173.72;;;20.36;44.17
3122;BME280;1571;52.524;14.104;2023-05-14T10:38:45;101173.75;;;20.82;44.73
3122;BME280;1571;52.524;14.104;2023-05-14T10:41:14;101170.13;;;20.73;44.91
3122;BME280;1571;52.524;14.104;2023-05-14T10:43:45;101167.88;;;20.69;43.88
3122;BME280;1571;52.524;14.104;2023-05-14T10:46:14;101167.94;;;21.40;43.86
3122;BME280;1571;52.524;14.104;2023-05-14T10:48:43;101147.97;;;21.77;42.99
3122;BME280;1571;52.524;14.104;2023-05-14T10:51:11;101128.78;;;21.89;41.64
3122;BME280;1571;52.524;14.104;2023-05-14T10:53:41;101135.59;;;22.27;42.84
3122;BME280;1571;52.524;14.104;2023-05-14T10:56:11;101128.78;;;21.89;41.58
3122;BME280;1571;52.524;14.104;2023-05-14T10:58:41;101117.56;;;21.75;40.78
3122;BME280;1571;52.524;14.104;2023-05-14T11:01:12;101107.78;;;22.17;40.67
3122;BME280;1571;52.524;14.104;2023-05-14T11:03:42;101110.47;;;21.12;41.71
3122;BME280;1571;52.524;14.104;2023-05-14T11:06:13;101119.25;;;20.61;42.62
3122;BME280;1571;52.524;14.104;2023-05-14T11:08:42;101122.66;;;20.63;42.68
3122;BME280;1571;52.524;14.104;2023-05-14T11:11:12;101111.72;;;20.54;42.26
3122;BME280;1571;52.524;14.104;2023-05-14T11:13:41;101108.06;;;21.27;42.57
3122;BME280;1571;52.524;14.104;2023-05-14T11:16:11;101102.75;;;21.61;41.03
3122;BME280;1571;52.524;14.104;2023-05-14T11:18:52;101093.59;;;21.54;40.08
3122;BME280;1571;52.524;14.104;2023-05-14T11:21:20;101093.88;;;21.69;40.48
3122;BME280;1571;52.524;14.104;2023-05-14T11:23:48;101091.91;;;21.53;41.80
3122;BME280;1571;52.524;14.104;2023-05-14T11:26:17;101086.47;;;21.27;41.13
3122;BME280;1571;52.524;14.104;2023-05-14T11:28:48;101085.75;;;21.25;41.74
3122;BME280;1571;52.524;14.104;2023-05-14T11:31:17;101092.66;;;21.19;42.36
3122;BME280;1571;52.524;14.104;2023-05-14T11:33:46;101095.44;;;21.10;41.88
3122;BME280;1571;52.524;14.104;2023-05-14T11:36:14;101101.91;;;21.17;43.02
3122;BME280;1571;52.524;14.104;2023-05-14T11:38:46;101093.00;;;20.98;41.83
3122;BME280;1571;52.524;14.104;2023-05-14T11:41:16;101065.03;;;21.44;40.50
3122;BME280;1571;52.524;14.104;2023-05-14T11:43:47;101065.44;;;22.26;40.50
3122;BME280;1571;52.524;14.104;2023-05-14T11:46:15;101055.38;;;22.52;39.44
3122;BME280;1571;52.524;14.104;2023-05-14T11:48:46;101047.44;;;22.92;38.83
3122;BME280;1571;52.524;14.104;2023-05-14T11:51:15;101041.16;;;22.58;39.25
3122;BME280;1571;52.524;14.104;2023-05-14T11:53:43;101026.63;;;22.59;37.35
3122;BME280;1571;52.524;14.104;2023-05-14T11:56:12;101043.66;;;22.35;39.14
3122;BME280;1571;52.524;14.104;2023-05-14T11:58:46;101052.97;;;22.41;40.90
3122;BME280;1571;52.524;14.104;2023-05-14T12:01:15;101051.88;;;21.83;40.57
3122;BME280;1571;52.524;14.104;2023-05-14T12:03:43;101048.66;;;21.79;40.13
3122;BME280;1571;52.524;14.104;2023-05-14T12:06:13;101048.50;;;21.47;40.06
3122;BME280;1571;52.524;14.104;2023-05-14T12:08:41;101050.31;;;21.20;40.81
3122;BME280;1571;52.524;14.104;2023-05-14T12:11:09;101049.56;;;21.10;40.54
3122;BME280;1571;52.524;14.104;2023-05-14T12:13:38;101051.94;;;21.13;41.48
3122;BME280;1571;52.524;14.104;2023-05-14T12:16:06;101041.88;;;21.23;40.48
3122;BME280;1571;52.524;14.104;2023-05-14T12:18:35;101040.78;;;21.34;41.04
3122;BME280;1571;52.524;14.104;2023-05-14T12:21:04;101043.59;;;21.50;40.51
3122;BME280;1571;52.524;14.104;2023-05-14T12:23:37;101047.59;;;21.20;40.77
3122;BME280;1571;52.524;14.104;2023-05-14T12:26:06;101027.22;;;21.44;39.92
3122;BME280;1571;52.524;14.104;2023-05-14T12:28:37;101019.41;;;21.40;39.74
3122;BME280;1571;52.524;14.104;2023-05-14T12:31:09;101033.66;;;21.07;40.92
3122;BME280;1571;52.524;14.104;2023-05-14T12:33:37;101032.78;;;21.24;41.03
3122;BME280;1571;52.524;14.104;2023-05-14T12:36:06;101025.34;;;21.00;40.47
3122;BME280;1571;52.524;14.104;2023-05-14T12:38:38;101015.75;;;21.50;41.35
3122;BME280;1571;52.524;14.104;2023-05-14T12:41:07;101012.06;;;21.51;40.28
3122;BME280;1571;52.524;14.104;2023-05-14T12:43:35;101015.53;;;21.17;41.30
3122;BME280;1571;52.524;14.104;2023-05-14T12:46:04;101020.31;;;21.05;42.88
3122;BME280;1571;52.524;14.104;2023-05-14T12:48:32;101011.00;;;20.99;40.87
3122;BME280;1571;52.524;14.104;2023-05-14T12:51:00;101009.75;;;21.12;41.08
3122;BME280;1571;52.524;14.104;2023-05-14T12:53:28;101013.19;;;20.78;41.45
3122;BME280;1571;52.524;14.104;2023-05-14T12:55:58;100999.69;;;20.78;41.39
3122;BME280;1571;52.524;14.104;2023-05-14T12:58:26;100999.84;;;20.94;42.27
3122;BME280;1571;52.524;14.104;2023-05-14T13:00:54;101006.03;;;20.69;42.03
3122;BME280;1571;52.524;14.104;2023-05-14T13:03:23;100996.72;;;20.63;41.99
3122;BME280;1571;52.524;14.104;2023-05-14T13:05:53;100985.31;;;20.69;40.25
3122;BME280;1571;52.524;14.104;2023-05-14T13:08:22;100991.00;;;20.84;41.02
3122;BME280;1571;52.524;14.104;2023-05-14T13:10:51;100984.75;;;20.84;40.60